sensor_id;sensor_type;location;lat;lon;timestamp;temperature;humidity
1936;DHT22;969;49.892;10.896;2023-02-04T08:21:09;15.40;48.00
1936;DHT22;969;49.892;10.896;2023-02-04T08:23:35;15.40;48.00
1936;DHT22;969;49.892;10.896;2023-02-04T08:26:07;15.50;48.10
1936;DHT22;969;49.892;10.896;2023-02-04T08:28:33;15.50;48.10
1936;DHT22;969;49.892;10.896;2023-02-04T08:30:58;15.50;48.10
1936;DHT22;969;49.892;10.896;2023-02-04T08:33:24;15.50;48.00
1936;DHT22;969;49.892;10.896;2023-02-04T08:35:49;15.50;48.00
1936;DHT22;969;49.892;10.896;2023-02-04T08:38:16;15.50;48.10
1936;DHT22;969;49.892;10.896;2023-02-04T08:40:42;15.60;46.70
1936;DHT22;969;49.892;10.896;2023-02-04T08:43:07;15.50;44.80
1936;DHT22;969;49.892;10.896;2023-02-04T08:45:33;15.50;45.50
1936;DHT22;969;49.892;10.896;2023-02-04T08:47:58;15.50;45.90
1936;DHT22;969;49.892;10.896;2023-02-04T08:50:24;15.50;46.20
1936;DHT22;969;49.892;10.896;2023-02-04T08:52:50;15.50;46.40
1936;DHT22;969;49.892;10.896;2023-02-04T08:55:15;15.50;46.60
1936;DHT22;969;49.892;10.896;2023-02-04T08:57:41;15.60;46.80
1936;DHT22;969;49.892;10.896;2023-02-04T09:00:08;15.60;46.90
1936;DHT22;969;49.892;10.896;2023-02-04T09:02:34;15.70;47.00
1936;DHT22;969;49.892;10.896;2023-02-04T09:05:00;15.70;47.00
1936;DHT22;969;49.892;10.896;2023-02-04T09:07:25;15.70;47.10
1936;DHT22;969;49.892;10.896;2023-02-04T09:09:51;15.80;47.20
1936;DHT22;969;49.892;10.896;2023-02-04T09:12:16;15.80;47.30
1936;DHT22;969;49.892;10.896;2023-02-04T09:14:42;15.80;47.30
1936;DHT22;969;49.892;10.896;2023-02-04T09:17:07;15.90;47.40
1936;DHT22;969;49.892;10.896;2023-02-04T09:19:33;15.90;47.50
1936;DHT22;969;49.892;10.896;2023-02-04T09:21:58;15.90;47.50
1936;DHT22;969;49.892;10.896;2023-02-04T09:24:24;16.00;47.60
1936;DHT22;969;49.892;10.896;2023-02-04T09:26:50;16.00;47.80
1936;DHT22;969;49.892;10.896;2023-02-04T09:29:15;16.00;47.70
1936;DHT22;969;49.892;10.896;2023-02-04T09:31:41;16.10;47.80
1936;DHT22;969;49.892;10.896;2023-02-04T09:34:07;16.10;47.80
1936;DHT22;969;49.892;10.896;2023-02-04T09:36:32;16.10;47.80
1936;DHT22;969;49.892;10.896;2023-02-04T09:39:03;16.20;48.00
1936;DHT22;969;49.892;10.896;2023-02-04T09:41:30;16.20;47.90
1936;DHT22;969;49.892;10.896;2023-02-04T09:43:57;16.30;48.00
1936;DHT22;969;49.892;10.896;2023-02-04T09:46:24;16.30;48.00
1936;DHT22;969;49.892;10.896;2023-02-04T09:48:54;16.30;47.90
1936;DHT22;969;49.892;10.896;2023-02-04T09:51:24;16.40;48.00
1936;DHT22;969;49.892;10.896;2023-02-04T09:53:51;16.40;48.00
1936;DHT22;969;49.892;10.896;2023-02-04T09:56:18;16.40;48.00
1936;DHT22;969;49.892;10.896;2023-02-04T09:58:44;16.40;48.50
1936;DHT22;969;49.892;10.896;2023-02-04T10:01:13;16.50;48.00
1936;DHT22;969;49.892;10.896;2023-02-04T10:03:41;16.50;48.10
1936;DHT22;969;49.892;10.896;2023-02-04T10:06:18;16.50;48.10
1936;DHT22;969;49.892;10.896;2023-02-04T10:08:46;16.50;48.70
1936;DHT22;969;49.892;10.896;2023-02-04T10:11:12;16.60;48.20
1936;DHT22;969;49.892;10.896;2023-02-04T10:13:50;16.60;48.10
1936;DHT22;969;49.892;10.896;2023-02-04T10:16:46;16.70;48.20
1936;DHT22;969;49.892;10.896;2023-02-04T10:19:15;16.70;48.20
1936;DHT22;969;49.892;10.896;2023-02-04T10:21:45;16.70;48.10
1936;DHT22;969;49.892;10.896;2023-02-04T10:24:22;16.80;48.20
1936;DHT22;969;49.892;10.896;2023-02-04T10:26:53;16.80;48.10
1936;DHT22;969;49.892;10.896;2023-02-04T10:29:21;16.80;48.10
1936;DHT22;969;49.892;10.896;2023-02-04T10:31:50;16.80;48.10
1936;DHT22;969;49.892;10.896;2023-02-04T10:34:31;16.90;48.10
1936;DHT22;969;49.892;10.896;2023-02-04T10:36:57;16.90;48.10
1936;DHT22;969;49.892;10.896;2023-02-04T10:39:24;16.90;48.10
1936;DHT22;969;49.892;10.896;2023-02-04T10:42:00;16.90;48.00
1936;DHT22;969;49.892;10.896;2023-02-04T10:44:29;16.90;48.00
1936;DHT22;969;49.892;10.896;2023-02-04T10:47:03;16.90;48.00
1936;DHT22;969;49.892;10.896;2023-02-04T10:49:29;17.00;48.00
1936;DHT22;969;49.892;10.896;2023-02-04T10:51:55;17.00;48.00
1936;DHT22;969;49.892;10.896;2023-02-04T10:54:23;16.90;47.90
1936;DHT22;969;49.892;10.896;2023-02-04T10:56:58;17.00;47.90
1936;DHT22;969;49.892;10.896;2023-02-04T10:59:25;17.00;47.90
1936;DHT22;969;49.892;10.896;2023-02-04T11:01:55;17.00;47.90
1936;DHT22;969;49.892;10.896;2023-02-04T11:04:21;17.00;47.90
1936;DHT22;969;49.892;10.896;2023-02-04T11:06:47;17.10;47.90
1936;DHT22;969;49.892;10.896;2023-02-04T11:09:13;17.10;47.90
1936;DHT22;969;49.892;10.896;2023-02-04T11:11:45;17.10;47.90
1936;DHT22;969;49.892;10.896;2023-02-04T11:14:25;17.10;47.80
1936;DHT22;969;49.892;10.896;2023-02-04T11:16:52;17.10;47.80
1936;DHT22;969;49.892;10.896;2023-02-04T11:19:35;17.10;47.80
1936;DHT22;969;49.892;10.896;2023-02-04T11:22:50;17.20;47.80
1936;DHT22;969;49.892;10.896;2023-02-04T11:24:51;17.20;47.80
1936;DHT22;969;49.892;10.896;2023-02-04T11:27:23;17.20;47.70
1936;DHT22;969;49.892;10.896;2023-02-04T11:29:49;17.20;47.80
1936;DHT22;969;49.892;10.896;2023-02-04T11:32:30;17.20;47.70
1936;DHT22;969;49.892;10.896;2023-02-04T11:37:41;17.20;47.70
1936;DHT22;969;49.892;10.896;2023-02-04T11:43:18;17.20;47.60
1936;DHT22;969;49.892;10.896;2023-02-04T11:45:44;17.20;47.60
1936;DHT22;969;49.892;10.896;2023-02-04T11:48:16;17.20;47.60
1936;DHT22;969;49.892;10.896;2023-02-04T11:50:42;17.30;47.70
1936;DHT22;969;49.892;10.896;2023-02-04T11:53:18;17.30;47.60
1936;DHT22;969;49.892;10.896;2023-02-04T11:55:48;17.30;47.70
1936;DHT22;969;49.892;10.896;2023-02-04T11:58:16;17.30;47.60
1936;DHT22;969;49.892;10.896;2023-02-04T12:00:43;17.30;47.60
1936;DHT22;969;49.892;10.896;2023-02-04T12:03:32;17.30;47.50
1936;DHT22;969;49.892;10.896;2023-02-04T12:06:00;17.30;47.50
1936;DHT22;969;49.892;10.896;2023-02-04T12:08:32;17.30;47.50
1936;DHT22;969;49.892;10.896;2023-02-04T12:11:01;17.40;47.60
1936;DHT22;969;49.892;10.896;2023-02-04T12:13:27;17.40;47.60
1936;DHT22;969;49.892;10.896;2023-02-04T12:16:00;17.40;47.50
1936;DHT22;969;49.892;10.896;2023-02-04T12:18:26;17.40;47.50
1936;DHT22;969;49.892;10.896;2023-02-04T12:20:53;17.40;47.50
1936;DHT22;969;49.892;10.896;2023-02-04T12:23:19;17.40;47.40
1936;DHT22;969;49.892;10.896;2023-02-04T12:25:44;17.50;47.50
1936;DHT22;969;49.892;10.896;2023-02-04T12:28:10;17.50;47.50
1936;DHT22;969;49.892;10.896;2023-02-04T12:30:35;17.50;47.50
1936;DHT22;969;49.892;10.896;2023-02-04T12:33:01;17.50;47.50
1936;DHT22;969;49.892;10.896;2023-02-04T12:35:27;17.50;48.00
1936;DHT22;969;49.892;10.896;2023-02-04T12:37:52;17.50;47.40
1936;DHT22;969;49.892;10.896;2023-02-04T12:40:20;17.50;47.40
1936;DHT22;969;49.892;10.896;2023-02-04T12:42:45;17.50;47.40
1936;DHT22;969;49.892;10.896;2023-02-04T12:45:13;17.50;47.40
1936;DHT22;969;49.892;10.896;2023-02-04T12:47:39;17.50;47.30
1936;DHT22;969;49.892;10.896;2023-02-04T12:50:05;17.50;47.30
1936;DHT22;969;49.892;10.896;2023-02-04T12:52:32;17.50;47.30
1936;DHT22;969;49.892;10.896;2023-02-04T12:54:57;17.50;47.30
1936;DHT22;969;49.892;10.896;2023-02-04T12:57:24;17.50;47.30
1936;DHT22;969;49.892;10.896;2023-02-04T12:59:50;17.50;47.30
1936;DHT22;969;49.892;10.896;2023-02-04T13:02:16;17.50;47.30
1936;DHT22;969;49.892;10.896;2023-02-04T13:04:42;17.50;47.30
1936;DHT22;969;49.892;10.896;2023-02-04T13:07:08;17.50;47.30
1936;DHT22;969;49.892;10.896;2023-02-04T13:09:35;17.50;47.50
1936;DHT22;969;49.892;10.896;2023-02-04T13:12:00;17.50;47.40
1936;DHT22;969;49.892;10.896;2023-02-04T13:14:26;17.50;47.40
1936;DHT22;969;49.892;10.896;2023-02-04T13:16:52;17.40;47.30
1936;DHT22;969;49.892;10.896;2023-02-04T13:19:17;17.50;47.40
1936;DHT22;969;49.892;10.896;2023-02-04T13:21:43;17.50;47.40
1936;DHT22;969;49.892;10.896;2023-02-04T13:24:08;17.40;47.40
1936;DHT22;969;49.892;10.896;2023-02-04T13:26:34;17.40;47.40
1936;DHT22;969;49.892;10.896;2023-02-04T13:28:59;17.40;47.40
1936;DHT22;969;49.892;10.896;2023-02-04T13:31:25;17.40;47.40
1936;DHT22;969;49.892;10.896;2023-02-04T13:33:51;17.40;47.40
1936;DHT22;969;49.892;10.896;2023-02-04T13:36:16;17.40;47.40
1936;DHT22;969;49.892;10.896;2023-02-04T13:38:42;17.30;47.40
1936;DHT22;969;49.892;10.896;2023-02-04T13:41:07;17.30;47.40
1936;DHT22;969;49.892;10.896;2023-02-04T13:43:33;17.30;47.40
1936;DHT22;969;49.892;10.896;2023-02-04T13:45:58;17.30;47.40
1936;DHT22;969;49.892;10.896;2023-02-04T13:48:27;17.30;47.40
1936;DHT22;969;49.892;10.896;2023-02-04T13:50:52;17.20;47.40
1936;DHT22;969;49.892;10.896;2023-02-04T13:53:18;17.20;47.40
1936;DHT22;969;49.892;10.896;2023-02-04T13:55:43;17.20;47.40
1936;DHT22;969;49.892;10.896;2023-02-04T13:58:09;17.20;47.50
1936;DHT22;969;49.892;10.896;2023-02-04T14:00:34;17.10;47.40
1936;DHT22;969;49.892;10.896;2023-02-04T14:03:00;17.10;47.50
1936;DHT22;969;49.892;10.896;2023-02-04T14:05:26;17.10;47.50
1936;DHT22;969;49.892;10.896;2023-02-04T14:07:51;17.10;47.60
1936;DHT22;969;49.892;10.896;2023-02-04T14:10:17;17.00;47.50
1936;DHT22;969;49.892;10.896;2023-02-04T14:12:43;17.00;47.60
1936;DHT22;969;49.892;10.896;2023-02-04T14:15:09;17.00;47.60
1936;DHT22;969;49.892;10.896;2023-02-04T14:17:35;17.00;47.70
1936;DHT22;969;49.892;10.896;2023-02-04T14:20:01;17.00;47.70
1936;DHT22;969;49.892;10.896;2023-02-04T14:22:29;17.00;47.80
1936;DHT22;969;49.892;10.896;2023-02-04T14:24:55;17.00;47.90
1936;DHT22;969;49.892;10.896;2023-02-04T14:27:21;17.00;48.10
1936;DHT22;969;49.892;10.896;2023-02-04T14:29:46;17.00;48.50
1936;DHT22;969;49.892;10.896;2023-02-04T14:32:12;17.10;48.50
1936;DHT22;969;49.892;10.896;2023-02-04T14:34:37;17.20;48.50
1936;DHT22;969;49.892;10.896;2023-02-04T14:37:03;17.40;48.20
1936;DHT22;969;49.892;10.896;2023-02-04T14:39:28;17.50;48.00
1936;DHT22;969;49.892;10.896;2023-02-04T14:41:54;17.60;47.90
1936;DHT22;969;49.892;10.896;2023-02-04T14:44:19;17.60;47.80
1936;DHT22;969;49.892;10.896;2023-02-04T14:46:46;17.60;47.60
1936;DHT22;969;49.892;10.896;2023-02-04T14:49:13;17.60;47.60
1936;DHT22;969;49.892;10.896;2023-02-04T14:51:39;17.60;47.50
1936;DHT22;969;49.892;10.896;2023-02-04T14:54:05;17.70;47.60
1936;DHT22;969;49.892;10.896;2023-02-04T14:56:30;17.90;47.40
1936;DHT22;969;49.892;10.896;2023-02-04T14:58:56;18.30;46.70
1936;DHT22;969;49.892;10.896;2023-02-04T15:01:21;18.80;46.40
1936;DHT22;969;49.892;10.896;2023-02-04T15:03:47;19.30;45.10
1936;DHT22;969;49.892;10.896;2023-02-04T15:06:13;19.90;44.20
1936;DHT22;969;49.892;10.896;2023-02-04T15:08:38;20.30;43.30
1936;DHT22;969;49.892;10.896;2023-02-04T15:11:04;20.60;42.80
1936;DHT22;969;49.892;10.896;2023-02-04T15:13:29;20.80;42.60
1936;DHT22;969;49.892;10.896;2023-02-04T15:15:55;20.80;42.40
1936;DHT22;969;49.892;10.896;2023-02-04T15:18:21;20.70;42.40
1936;DHT22;969;49.892;10.896;2023-02-04T15:20:46;20.50;42.60
1936;DHT22;969;49.892;10.896;2023-02-04T15:23:12;20.20;42.90
1936;DHT22;969;49.892;10.896;2023-02-04T15:25:39;20.00;43.30
1936;DHT22;969;49.892;10.896;2023-02-04T15:28:05;19.70;43.60
1936;DHT22;969;49.892;10.896;2023-02-04T15:30:31;19.40;43.90
1936;DHT22;969;49.892;10.896;2023-02-04T15:32:57;19.20;44.30
1936;DHT22;969;49.892;10.896;2023-02-04T15:35:22;19.00;44.50
1936;DHT22;969;49.892;10.896;2023-02-04T15:37:48;18.80;44.80
1936;DHT22;969;49.892;10.896;2023-02-04T15:40:14;18.60;45.10
1936;DHT22;969;49.892;10.896;2023-02-04T15:42:39;18.50;45.40
1936;DHT22;969;49.892;10.896;2023-02-04T15:45:06;18.30;45.50
1936;DHT22;969;49.892;10.896;2023-02-04T15:47:32;18.10;45.70
1936;DHT22;969;49.892;10.896;2023-02-04T15:49:57;18.10;46.00
1936;DHT22;969;49.892;10.896;2023-02-04T15:52:23;17.90;46.10
1936;DHT22;969;49.892;10.896;2023-02-04T15:54:48;17.80;46.20
1936;DHT22;969;49.892;10.896;2023-02-04T15:57:14;17.70;46.30
1936;DHT22;969;49.892;10.896;2023-02-04T15:59:40;17.70;46.50
1936;DHT22;969;49.892;10.896;2023-02-04T16:02:05;17.60;46.60
1936;DHT22;969;49.892;10.896;2023-02-04T16:04:31;17.50;46.60
1936;DHT22;969;49.892;10.896;2023-02-04T16:06:57;17.50;46.70
1936;DHT22;969;49.892;10.896;2023-02-04T16:09:23;17.40;46.80
1936;DHT22;969;49.892;10.896;2023-02-04T16:11:49;17.40;46.90
1936;DHT22;969;49.892;10.896;2023-02-04T16:14:14;17.30;46.90
1936;DHT22;969;49.892;10.896;2023-02-04T16:16:40;17.30;47.00
1936;DHT22;969;49.892;10.896;2023-02-04T16:19:06;17.30;47.00
1936;DHT22;969;49.892;10.896;2023-02-04T16:21:31;17.20;47.00
1936;DHT22;969;49.892;10.896;2023-02-04T16:23:57;17.20;47.10
1936;DHT22;969;49.892;10.896;2023-02-04T16:26:22;17.20;47.10
1936;DHT22;969;49.892;10.896;2023-02-04T16:28:48;17.10;47.10
1936;DHT22;969;49.892;10.896;2023-02-04T16:31:14;17.10;47.40
1936;DHT22;969;49.892;10.896;2023-02-04T16:33:40;17.10;47.40
1936;DHT22;969;49.892;10.896;2023-02-04T16:36:09;17.00;47.80
1936;DHT22;969;49.892;10.896;2023-02-04T16:38:37;17.00;48.00
1936;DHT22;969;49.892;10.896;2023-02-04T16:41:04;17.00;47.90
1936;DHT22;969;49.892;10.896;2023-02-04T16:43:30;16.90;47.90
1936;DHT22;969;49.892;10.896;2023-02-04T16:45:56;17.00;48.00
1936;DHT22;969;49.892;10.896;2023-02-04T16:48:22;16.90;47.90
1936;DHT22;969;49.892;10.896;2023-02-04T16:50:47;16.90;48.00
1936;DHT22;969;49.892;10.896;2023-02-04T16:53:13;16.90;48.10
1936;DHT22;969;49.892;10.896;2023-02-04T16:55:42;16.90;48.20
1936;DHT22;969;49.892;10.896;2023-02-04T16:58:09;16.90;48.10
1936;DHT22;969;49.892;10.896;2023-02-04T17:00:34;16.90;48.10
1936;DHT22;969;49.892;10.896;2023-02-04T17:03:02;16.90;48.20
1936;DHT22;969;49.892;10.896;2023-02-04T17:05:27;16.90;48.20
1936;DHT22;969;49.892;10.896;2023-02-04T17:07:53;16.90;48.10
1936;DHT22;969;49.892;10.896;2023-02-04T17:10:19;16.90;48.10
1936;DHT22;969;49.892;10.896;2023-02-04T17:13:05;16.90;48.10
1936;DHT22;969;49.892;10.896;2023-02-04T17:15:31;16.90;48.10
1936;DHT22;969;49.892;10.896;2023-02-04T17:17:56;16.90;48.10
1936;DHT22;969;49.892;10.896;2023-02-04T17:20:22;16.90;48.00
1936;DHT22;969;49.892;10.896;2023-02-04T17:22:47;16.90;48.00
1936;DHT22;969;49.892;10.896;2023-02-04T17:25:13;16.90;48.50
1936;DHT22;969;49.892;10.896;2023-02-04T17:27:39;16.90;48.00
1936;DHT22;969;49.892;10.896;2023-02-04T17:30:04;16.90;47.90
1936;DHT22;969;49.892;10.896;2023-02-04T17:32:30;16.90;47.80
1936;DHT22;969;49.892;10.896;2023-02-04T17:34:56;16.90;47.80
1936;DHT22;969;49.892;10.896;2023-02-04T17:37:23;16.90;47.70
1936;DHT22;969;49.892;10.896;2023-02-04T17:39:48;17.00;47.70
1936;DHT22;969;49.892;10.896;2023-02-04T17:42:14;17.00;47.70
1936;DHT22;969;49.892;10.896;2023-02-04T17:44:39;17.00;47.70
1936;DHT22;969;49.892;10.896;2023-02-04T17:47:05;17.00;47.60
1936;DHT22;969;49.892;10.896;2023-02-04T17:49:30;17.00;47.60
1936;DHT22;969;49.892;10.896;2023-02-04T17:51:56;17.00;47.50
1936;DHT22;969;49.892;10.896;2023-02-04T17:54:22;17.00;47.50
1936;DHT22;969;49.892;10.896;2023-02-04T17:56:48;17.00;47.50
1936;DHT22;969;49.892;10.896;2023-02-04T17:59:14;17.00;47.50
1936;DHT22;969;49.892;10.896;2023-02-04T18:01:40;17.00;47.50
1936;DHT22;969;49.892;10.896;2023-02-04T18:04:12;17.00;47.50
1936;DHT22;969;49.892;10.896;2023-02-04T18:06:38;17.00;47.60
1936;DHT22;969;49.892;10.896;2023-02-04T18:09:14;17.00;47.60
1936;DHT22;969;49.892;10.896;2023-02-04T18:11:40;17.00;47.50
1936;DHT22;969;49.892;10.896;2023-02-04T18:14:20;17.00;47.50
1936;DHT22;969;49.892;10.896;2023-02-04T18:16:48;17.10;47.50
1936;DHT22;969;49.892;10.896;2023-02-04T18:21:46;17.10;47.50
1936;DHT22;969;49.892;10.896;2023-02-04T18:26:46;17.10;47.40
1936;DHT22;969;49.892;10.896;2023-02-04T18:31:52;17.10;47.40
1936;DHT22;969;49.892;10.896;2023-02-04T18:34:22;17.10;47.60
1936;DHT22;969;49.892;10.896;2023-02-04T18:36:49;17.10;47.60
1936;DHT22;969;49.892;10.896;2023-02-04T18:39:23;17.10;47.50
1936;DHT22;969;49.892;10.896;2023-02-04T18:41:50;17.10;47.40
1936;DHT22;969;49.892;10.896;2023-02-04T18:44:28;17.10;47.30
1936;DHT22;969;49.892;10.896;2023-02-04T18:46:55;17.20;47.30
1936;DHT22;969;49.892;10.896;2023-02-04T18:49:27;17.20;47.30
1936;DHT22;969;49.892;10.896;2023-02-04T18:51:54;17.20;47.20
1936;DHT22;969;49.892;10.896;2023-02-04T18:54:26;17.20;47.20
1936;DHT22;969;49.892;10.896;2023-02-04T18:56:52;17.20;47.20
1936;DHT22;969;49.892;10.896;2023-02-04T18:59:23;17.20;47.10
1936;DHT22;969;49.892;10.896;2023-02-04T19:01:51;17.20;47.00
1936;DHT22;969;49.892;10.896;2023-02-04T19:04:20;17.20;47.00
1936;DHT22;969;49.892;10.896;2023-02-04T19:06:46;17.20;47.00
1936;DHT22;969;49.892;10.896;2023-02-04T19:09:27;17.20;47.00
1936;DHT22;969;49.892;10.896;2023-02-04T19:11:58;17.20;47.00
1936;DHT22;969;49.892;10.896;2023-02-04T19:14:43;17.20;46.90
1936;DHT22;969;49.892;10.896;2023-02-04T19:17:27;17.20;46.90
1936;DHT22;969;49.892;10.896;2023-02-04T19:20:01;17.20;46.80
1936;DHT22;969;49.892;10.896;2023-02-04T19:22:43;17.20;46.80
1936;DHT22;969;49.892;10.896;2023-02-04T19:27:58;17.20;46.80
1936;DHT22;969;49.892;10.896;2023-02-04T19:32:53;17.20;46.80
1936;DHT22;969;49.892;10.896;2023-02-04T19:35:23;17.20;46.80
1936;DHT22;969;49.892;10.896;2023-02-04T19:37:58;17.20;46.70
1936;DHT22;969;49.892;10.896;2023-02-04T19:40:33;17.20;46.80
1936;DHT22;969;49.892;10.896;2023-02-04T19:43:12;17.20;46.70
1936;DHT22;969;49.892;10.896;2023-02-04T19:45:38;17.20;47.30
1936;DHT22;969;49.892;10.896;2023-02-04T19:48:20;17.20;48.20
1936;DHT22;969;49.892;10.896;2023-02-04T19:50:46;17.20;48.40
1936;DHT22;969;49.892;10.896;2023-02-04T19:53:18;17.20;48.30
1936;DHT22;969;49.892;10.896;2023-02-04T19:55:52;17.30;48.40
1936;DHT22;969;49.892;10.896;2023-02-04T19:58:23;17.30;48.30
1936;DHT22;969;49.892;10.896;2023-02-04T20:05:50;17.30;48.10
1936;DHT22;969;49.892;10.896;2023-02-04T20:08:38;17.30;48.10
1936;DHT22;969;49.892;10.896;2023-02-04T20:15:09;17.30;48.10
1936;DHT22;969;49.892;10.896;2023-02-04T20:19:49;17.20;47.90
1936;DHT22;969;49.892;10.896;2023-02-04T20:24:50;17.20;48.10
1936;DHT22;969;49.892;10.896;2023-02-04T20:29:47;17.30;48.90
1936;DHT22;969;49.892;10.896;2023-02-04T20:32:22;17.30;48.80
1936;DHT22;969;49.892;10.896;2023-02-04T20:35:46;17.30;48.80
1936;DHT22;969;49.892;10.896;2023-02-04T20:37:53;17.30;48.60
1936;DHT22;969;49.892;10.896;2023-02-04T20:43:28;17.30;48.40
1936;DHT22;969;49.892;10.896;2023-02-04T20:45:37;17.30;48.40
1936;DHT22;969;49.892;10.896;2023-02-04T20:50:40;17.30;48.30
1936;DHT22;969;49.892;10.896;2023-02-04T20:53:22;17.30;48.20
1936;DHT22;969;49.892;10.896;2023-02-04T20:55:50;17.30;48.10
1936;DHT22;969;49.892;10.896;2023-02-04T20:58:21;17.30;48.10
1936;DHT22;969;49.892;10.896;2023-02-04T21:00:53;17.30;48.10
1936;DHT22;969;49.892;10.896;2023-02-04T21:03:36;17.30;48.00
1936;DHT22;969;49.892;10.896;2023-02-04T21:06:12;17.30;48.00
1936;DHT22;969;49.892;10.896;2023-02-04T21:08:45;17.30;47.90
1936;DHT22;969;49.892;10.896;2023-02-04T21:11:12;17.30;47.90
1936;DHT22;969;49.892;10.896;2023-02-04T21:13:38;17.30;47.90
1936;DHT22;969;49.892;10.896;2023-02-04T21:16:04;17.30;47.80
1936;DHT22;969;49.892;10.896;2023-02-04T21:18:30;17.30;47.70
1936;DHT22;969;49.892;10.896;2023-02-04T21:21:03;17.30;47.70
1936;DHT22;969;49.892;10.896;2023-02-04T21:23:29;17.30;47.70
1936;DHT22;969;49.892;10.896;2023-02-04T21:25:54;17.30;47.70
1936;DHT22;969;49.892;10.896;2023-02-04T21:28:20;17.30;47.60
1936;DHT22;969;49.892;10.896;2023-02-04T21:30:46;17.30;47.50
1936;DHT22;969;49.892;10.896;2023-02-04T21:33:11;17.30;47.50
1936;DHT22;969;49.892;10.896;2023-02-04T21:35:38;17.30;47.70
1936;DHT22;969;49.892;10.896;2023-02-04T21:38:04;17.30;47.70
1936;DHT22;969;49.892;10.896;2023-02-04T21:40:30;17.30;47.70
1936;DHT22;969;49.892;10.896;2023-02-04T21:42:56;17.30;47.70
1936;DHT22;969;49.892;10.896;2023-02-04T21:45:23;17.30;48.20
1936;DHT22;969;49.892;10.896;2023-02-04T21:47:51;17.30;47.90
1936;DHT22;969;49.892;10.896;2023-02-04T21:50:18;17.30;47.50
1936;DHT22;969;49.892;10.896;2023-02-04T21:52:44;17.30;47.50
1936;DHT22;969;49.892;10.896;2023-02-04T21:55:11;17.30;47.40
1936;DHT22;969;49.892;10.896;2023-02-04T21:57:37;17.30;47.40
1936;DHT22;969;49.892;10.896;2023-02-04T22:00:04;17.30;47.40
1936;DHT22;969;49.892;10.896;2023-02-04T22:02:30;17.30;47.30
1936;DHT22;969;49.892;10.896;2023-02-04T22:04:55;17.30;47.30
1936;DHT22;969;49.892;10.896;2023-02-04T22:07:21;17.30;47.30
1936;DHT22;969;49.892;10.896;2023-02-04T22:09:47;17.30;47.30
1936;DHT22;969;49.892;10.896;2023-02-04T22:12:17;17.30;47.30
1936;DHT22;969;49.892;10.896;2023-02-04T22:14:43;17.30;47.20
1936;DHT22;969;49.892;10.896;2023-02-04T22:17:27;17.20;47.10
1936;DHT22;969;49.892;10.896;2023-02-04T22:19:53;17.30;47.10
1936;DHT22;969;49.892;10.896;2023-02-04T22:22:19;17.30;47.10
1936;DHT22;969;49.892;10.896;2023-02-04T22:24:45;17.20;47.00
1936;DHT22;969;49.892;10.896;2023-02-04T22:27:11;17.20;46.90
1936;DHT22;969;49.892;10.896;2023-02-04T22:29:36;17.30;47.00
1936;DHT22;969;49.892;10.896;2023-02-04T22:32:02;17.30;47.00
1936;DHT22;969;49.892;10.896;2023-02-04T22:34:27;17.20;47.00
1936;DHT22;969;49.892;10.896;2023-02-04T22:36:53;17.20;47.00
1936;DHT22;969;49.892;10.896;2023-02-04T22:39:20;17.20;46.90
1936;DHT22;969;49.892;10.896;2023-02-04T22:41:45;17.20;46.90
1936;DHT22;969;49.892;10.896;2023-02-04T22:44:11;17.20;46.90
1936;DHT22;969;49.892;10.896;2023-02-04T22:46:36;17.20;46.90
1936;DHT22;969;49.892;10.896;2023-02-04T22:49:02;17.20;46.90
1936;DHT22;969;49.892;10.896;2023-02-04T22:51:30;17.10;46.80
1936;DHT22;969;49.892;10.896;2023-02-04T22:53:56;17.10;46.80
1936;DHT22;969;49.892;10.896;2023-02-04T22:56:21;17.10;46.80
1936;DHT22;969;49.892;10.896;2023-02-04T22:58:47;17.10;46.80
1936;DHT22;969;49.892;10.896;2023-02-04T23:01:13;17.10;46.80
1936;DHT22;969;49.892;10.896;2023-02-04T23:03:38;17.00;46.80
1936;DHT22;969;49.892;10.896;2023-02-04T23:06:04;17.00;46.80
1936;DHT22;969;49.892;10.896;2023-02-04T23:08:30;17.00;46.80
1936;DHT22;969;49.892;10.896;2023-02-04T23:10:55;17.00;46.80
1936;DHT22;969;49.892;10.896;2023-02-04T23:13:21;17.00;46.80
1936;DHT22;969;49.892;10.896;2023-02-04T23:15:46;16.90;46.70
1936;DHT22;969;49.892;10.896;2023-02-04T23:18:12;16.90;46.80
1936;DHT22;969;49.892;10.896;2023-02-04T23:20:38;16.90;46.80
1936;DHT22;969;49.892;10.896;2023-02-04T23:23:05;16.90;46.80
1936;DHT22;969;49.892;10.896;2023-02-04T23:25:33;16.90;46.80
1936;DHT22;969;49.892;10.896;2023-02-04T23:27:59;16.80;46.70
1936;DHT22;969;49.892;10.896;2023-02-04T23:30:24;16.80;46.70
1936;DHT22;969;49.892;10.896;2023-02-04T23:32:50;16.80;46.70
1936;DHT22;969;49.892;10.896;2023-02-04T23:35:16;16.80;46.70
1936;DHT22;969;49.892;10.896;2023-02-04T23:37:41;16.80;46.70
1936;DHT22;969;49.892;10.896;2023-02-04T23:40:07;16.80;46.70
